Time;durP1;ratioP1;P1;durP2;ratioP2;P2;SDS_P1;SDS_P2;PMS_P1;PMS_P2;Temp;Humidity;BMP_temperature;BMP_pressure;BME280_temperature;BME280_humidity;BME280_pressure;Samples;Min_cycle;Max_cycle;Signal;HPM_P1;HPM_P2
2022/04/21 00:01:15;;;;;;;18.08;7.68;;;;;;;;;;5071027;28;20055;-66
2022/04/21 00:03:46;;;;;;;17.95;8.52;;;;;;;;;;5070679;28;20045;-66
2022/04/21 00:06:17;;;;;;;17.70;7.20;;;;;;;;;;5053535;28;20056;-66
2022/04/21 00:08:48;;;;;;;21.17;7.35;;;;;;;;;;5053422;28;20052;-66
2022/04/21 00:11:19;;;;;;;13.68;7.13;;;;;;;;;;5071003;28;20595;-65
2022/04/21 00:13:50;;;;;;;15.40;7.65;;;;;;;;;;5014821;28;20048;-65
2022/04/21 00:16:21;;;;;;;16.55;7.38;;;;;;;;;;5048340;28;20061;-66
2022/04/21 00:18:52;;;;;;;17.08;6.53;;;;;;;;;;5048479;28;20053;-67
2022/04/21 00:23:25;;;;;;;14.50;6.00;;;;;;;;;;5028732;28;20053;-66
2022/04/21 00:24:13;;;;;;;15.02;6.50;;;;;;;;;;5028545;28;20056;-66
2022/04/21 00:26:44;;;;;;;17.27;6.53;;;;;;;;;;5012154;28;20422;-66
2022/04/21 00:29:17;;;;;;;16.60;6.20;;;;;;;;;;5028299;28;20045;-67
2022/04/21 00:31:47;;;;;;;15.73;6.15;;;;;;;;;;5028532;28;20050;-66
2022/04/21 00:34:22;;;;;;;15.10;6.53;;;;;;;;;;4989549;28;20434;-67
2022/04/21 00:36:53;;;;;;;16.55;7.70;;;;;;;;;;4992777;28;20062;-67
2022/04/21 00:39:24;;;;;;;17.52;7.82;;;;;;;;;;4992639;28;20082;-68
2022/04/21 00:41:59;;;;;;;20.83;7.93;;;;;;;;;;4960126;28;20054;-66
2022/04/21 00:44:30;;;;;;;17.23;7.53;;;;;;;;;;4992576;28;20483;-67
2022/04/21 00:47:06;;;;;;;18.65;7.70;;;;;;;;;;4992650;28;20073;-67
2022/04/21 00:49:37;;;;;;;19.40;8.52;;;;;;;;;;4992481;28;20061;-66
2022/04/21 00:52:08;;;;;;;20.48;8.40;;;;;;;;;;4976728;28;20073;-67
2022/04/21 00:54:38;;;;;;;20.92;9.43;;;;;;;;;;4992896;28;20063;-67
2022/04/21 00:57:09;;;;;;;20.67;9.02;;;;;;;;;;4995749;28;20077;-66
2022/04/21 00:59:42;;;;;;;24.52;9.43;;;;;;;;;;5011954;28;20050;-67
2022/04/21 01:05:02;;;;;;;18.58;9.48;;;;;;;;;;5011954;28;20374;-67
2022/04/21 01:07:34;;;;;;;22.67;8.75;;;;;;;;;;5011858;28;20046;-66
2022/04/21 01:10:06;;;;;;;22.92;9.23;;;;;;;;;;5011807;28;20056;-67
2022/04/21 01:12:37;;;;;;;16.60;8.65;;;;;;;;;;5043997;28;20053;-66
2022/04/21 01:15:08;;;;;;;20.48;8.38;;;;;;;;;;5036189;28;20052;-68
2022/04/21 01:17:39;;;;;;;20.83;7.22;;;;;;;;;;5018869;28;20060;-66
2022/04/21 01:20:13;;;;;;;20.05;7.85;;;;;;;;;;5018283;28;20507;-66
2022/04/21 01:22:44;;;;;;;22.00;9.18;;;;;;;;;;4994753;28;20050;-67
2022/04/21 01:25:15;;;;;;;18.35;8.95;;;;;;;;;;4978882;28;20057;-68
2022/04/21 01:27:47;;;;;;;21.90;9.45;;;;;;;;;;5011273;28;20103;-68
2022/04/21 01:30:18;;;;;;;18.52;9.13;;;;;;;;;;4995206;28;20052;-68
2022/04/21 01:32:49;;;;;;;19.58;10.18;;;;;;;;;;5011325;28;20085;-66
2022/04/21 01:35:20;;;;;;;23.40;10.55;;;;;;;;;;4962446;28;20421;-66
2022/04/21 01:43:28;;;;;;;25.08;10.35;;;;;;;;;;5011196;28;20049;-67
2022/04/21 01:45:58;;;;;;;26.85;11.23;;;;;;;;;;4990719;28;20049;-67
2022/04/21 01:48:29;;;;;;;25.40;10.43;;;;;;;;;;4974947;28;20073;-67
2022/04/21 01:50:59;;;;;;;21.23;9.50;;;;;;;;;;4991409;28;20050;-66
2022/04/21 01:53:30;;;;;;;20.13;8.43;;;;;;;;;;4991382;28;20155;-67
2022/04/21 01:56:01;;;;;;;16.45;8.45;;;;;;;;;;4971682;28;20043;-66
2022/04/21 01:58:32;;;;;;;22.25;8.40;;;;;;;;;;4923599;28;20055;-67
2022/04/21 02:01:03;;;;;;;18.42;7.68;;;;;;;;;;4986671;28;20653;-67
2022/04/21 02:03:33;;;;;;;19.08;7.65;;;;;;;;;;4991024;28;20063;-67
2022/04/21 02:06:04;;;;;;;19.42;7.97;;;;;;;;;;4991365;28;20054;-67
2022/04/21 02:08:35;;;;;;;20.40;8.57;;;;;;;;;;4990967;28;20062;-67
2022/04/21 02:11:06;;;;;;;16.58;8.02;;;;;;;;;;4991002;28;20062;-67
2022/04/21 02:13:37;;;;;;;16.75;8.75;;;;;;;;;;4990813;28;20050;-67
2022/04/21 02:16:07;;;;;;;18.27;8.30;;;;;;;;;;4990308;28;20089;-67
2022/04/21 02:18:38;;;;;;;19.10;8.13;;;;;;;;;;4974904;28;20403;-67
2022/04/21 02:21:09;;;;;;;17.40;8.15;;;;;;;;;;4990633;28;20062;-67
2022/04/21 02:23:40;;;;;;;18.05;9.50;;;;;;;;;;4984817;28;20062;-67
2022/04/21 02:26:11;;;;;;;20.75;10.38;;;;;;;;;;4986780;28;20062;-67
2022/04/21 02:28:43;;;;;;;21.83;9.18;;;;;;;;;;4955341;28;20058;-67
2022/04/21 02:31:14;;;;;;;22.95;9.27;;;;;;;;;;4971256;28;20059;-67
2022/04/21 02:33:44;;;;;;;21.45;8.98;;;;;;;;;;4981333;28;20069;-67
2022/04/21 02:36:15;;;;;;;19.20;7.90;;;;;;;;;;4990307;28;20046;-67
2022/04/21 02:38:45;;;;;;;18.23;8.43;;;;;;;;;;4990181;28;20058;-67
2022/04/21 02:41:16;;;;;;;19.35;8.68;;;;;;;;;;4989867;28;20058;-68
2022/04/21 02:43:47;;;;;;;20.30;9.57;;;;;;;;;;4990138;28;20054;-68
2022/04/21 02:46:17;;;;;;;19.45;9.07;;;;;;;;;;5006334;28;20057;-68
2022/04/21 02:48:48;;;;;;;18.63;8.02;;;;;;;;;;5009473;28;20434;-67
2022/04/21 02:51:19;;;;;;;18.42;8.98;;;;;;;;;;4989791;28;20050;-67
2022/04/21 02:59:29;;;;;;;17.67;8.82;;;;;;;;;;4950752;29;20055;-68
2022/04/21 03:02:00;;;;;;;16.90;7.93;;;;;;;;;;4950954;29;20070;-69
2022/04/21 03:04:30;;;;;;;18.20;7.55;;;;;;;;;;4931997;29;20436;-67
2022/04/21 03:07:01;;;;;;;17.92;7.75;;;;;;;;;;4931912;29;20067;-67
2022/04/21 03:09:32;;;;;;;19.90;8.98;;;;;;;;;;4930976;29;20055;-67
2022/04/21 03:12:04;;;;;;;15.27;7.57;;;;;;;;;;4931835;29;20637;-67
2022/04/21 03:14:36;;;;;;;17.92;7.93;;;;;;;;;;4931713;29;20056;-67
2022/04/21 03:17:09;;;;;;;18.90;8.65;;;;;;;;;;4931735;29;20068;-67
2022/04/21 03:19:40;;;;;;;22.00;9.68;;;;;;;;;;4931607;29;20058;-68
2022/04/21 03:25:06;;;;;;;23.48;10.68;;;;;;;;;;4912945;29;20052;-67
2022/04/21 03:27:37;;;;;;;24.23;11.10;;;;;;;;;;4914109;29;20547;-68
2022/04/21 03:30:08;;;;;;;24.38;12.45;;;;;;;;;;4913504;29;20059;-67
2022/04/21 03:32:40;;;;;;;24.23;12.43;;;;;;;;;;4912394;29;20444;-67
2022/04/21 03:35:11;;;;;;;22.50;11.60;;;;;;;;;;4894076;29;20053;-67
2022/04/21 03:37:41;;;;;;;20.75;10.77;;;;;;;;;;4893649;29;20075;-67
2022/04/21 03:40:12;;;;;;;24.90;10.65;;;;;;;;;;4879916;29;20057;-67
2022/04/21 03:42:43;;;;;;;21.45;10.20;;;;;;;;;;4888434;29;20060;-67
2022/04/21 03:45:13;;;;;;;23.63;10.90;;;;;;;;;;4893759;29;20053;-67
2022/04/21 03:47:46;;;;;;;29.48;12.10;;;;;;;;;;4893614;29;20421;-67
2022/04/21 03:50:16;;;;;;;25.08;11.13;;;;;;;;;;4837426;29;20063;-67
2022/04/21 03:52:47;;;;;;;25.38;11.00;;;;;;;;;;4921340;29;20051;-67
2022/04/21 03:55:18;;;;;;;20.92;9.85;;;;;;;;;;4931579;29;20051;-66
2022/04/21 03:57:49;;;;;;;24.33;11.32;;;;;;;;;;4898899;29;20057;-67
2022/04/21 04:00:19;;;;;;;21.08;9.45;;;;;;;;;;4906821;29;20113;-66
2022/04/21 04:02:49;;;;;;;22.70;8.88;;;;;;;;;;4911962;29;20170;-67
2022/04/21 04:05:20;;;;;;;23.33;9.73;;;;;;;;;;4922878;29;20059;-67
2022/04/21 04:10:53;;;;;;;20.85;9.13;;;;;;;;;;4915627;29;20063;-67
2022/04/21 04:13:24;;;;;;;21.15;8.48;;;;;;;;;;4954473;29;20055;-67
2022/04/21 04:15:57;;;;;;;18.70;8.45;;;;;;;;;;4954293;29;20062;-67
2022/04/21 04:18:29;;;;;;;18.77;8.10;;;;;;;;;;4997524;28;20129;-67
2022/04/21 04:21:00;;;;;;;27.60;9.27;;;;;;;;;;4992362;28;20395;-70
2022/04/21 04:23:30;;;;;;;19.00;9.02;;;;;;;;;;4980007;28;20053;-67
2022/04/21 04:26:00;;;;;;;17.50;8.60;;;;;;;;;;4963832;28;20421;-67
2022/04/21 04:28:31;;;;;;;18.98;7.72;;;;;;;;;;5012494;28;20097;-67
2022/04/21 04:31:02;;;;;;;16.52;7.13;;;;;;;;;;4996255;28;20053;-67
2022/04/21 04:33:33;;;;;;;15.65;7.75;;;;;;;;;;4960570;28;20054;-67
2022/04/21 04:36:04;;;;;;;19.65;7.78;;;;;;;;;;5007522;28;20058;-67
2022/04/21 04:38:35;;;;;;;18.83;8.88;;;;;;;;;;4972917;28;20738;-68
2022/04/21 04:43:54;;;;;;;17.35;6.28;;;;;;;;;;4953620;29;20063;-68
2022/04/21 04:46:42;;;;;;;18.27;7.63;;;;;;;;;;4972718;28;20067;-67
2022/04/21 04:49:12;;;;;;;19.30;7.38;;;;;;;;;;4972823;28;20428;-67
2022/04/21 04:51:43;;;;;;;14.80;6.68;;;;;;;;;;4972698;28;20059;-66
2022/04/21 04:54:17;;;;;;;13.45;6.00;;;;;;;;;;4972502;28;20050;-67
2022/04/21 04:56:48;;;;;;;18.45;6.22;;;;;;;;;;4953002;28;20555;-67
2022/04/21 04:59:19;;;;;;;15.52;6.25;;;;;;;;;;4934011;29;20062;-67
2022/04/21 05:01:50;;;;;;;14.02;6.18;;;;;;;;;;4919536;29;20056;-67
2022/04/21 05:04:22;;;;;;;15.85;6.95;;;;;;;;;;4846277;29;20053;-67
2022/04/21 05:06:57;;;;;;;21.55;8.13;;;;;;;;;;4896045;29;20063;-67
2022/04/21 05:09:28;;;;;;;18.08;7.57;;;;;;;;;;4896280;29;20060;-67
2022/04/21 05:11:59;;;;;;;18.85;8.82;;;;;;;;;;4896366;29;20508;-66
2022/04/21 05:14:30;;;;;;;20.48;10.43;;;;;;;;;;4877362;29;20061;-67
2022/04/21 05:17:01;;;;;;;19.90;9.55;;;;;;;;;;4892413;29;20422;-67
2022/04/21 05:19:32;;;;;;;16.33;7.82;;;;;;;;;;4896179;29;20067;-67
2022/04/21 05:22:05;;;;;;;18.73;7.72;;;;;;;;;;4894869;29;20056;-67
2022/04/21 05:24:38;;;;;;;14.23;6.40;;;;;;;;;;4841420;29;20060;-67
2022/04/21 05:27:11;;;;;;;13.45;6.00;;;;;;;;;;4864121;29;20417;-67
2022/04/21 05:32:40;;;;;;;13.05;6.30;;;;;;;;;;4876967;29;20060;-67
2022/04/21 05:35:12;;;;;;;23.13;7.22;;;;;;;;;;4891422;29;20060;-66
2022/04/21 05:37:43;;;;;;;16.92;7.93;;;;;;;;;;4914705;29;20060;-66
2022/04/21 05:40:14;;;;;;;20.95;8.52;;;;;;;;;;4914665;29;20067;-66
2022/04/21 05:42:49;;;;;;;20.60;7.75;;;;;;;;;;4945383;28;20070;-67
2022/04/21 05:45:20;;;;;;;17.23;7.82;;;;;;;;;;4985637;28;20058;-67
2022/04/21 05:47:52;;;;;;;17.77;8.02;;;;;;;;;;4972004;28;20106;-67
2022/04/21 05:50:23;;;;;;;14.27;6.32;;;;;;;;;;4972036;28;20769;-67
2022/04/21 05:52:58;;;;;;;17.77;6.25;;;;;;;;;;4987851;28;20062;-67
2022/04/21 05:55:30;;;;;;;14.85;5.60;;;;;;;;;;5011286;28;20054;-66
2022/04/21 05:58:00;;;;;;;17.50;6.03;;;;;;;;;;4971577;28;20549;-67
2022/04/21 06:00:31;;;;;;;13.00;5.80;;;;;;;;;;4939568;28;20058;-66
2022/04/21 06:03:02;;;;;;;20.33;7.07;;;;;;;;;;4971673;28;20495;-66
2022/04/21 06:05:33;;;;;;;18.58;8.00;;;;;;;;;;4971639;28;20085;-67
2022/04/21 06:08:06;;;;;;;16.25;7.80;;;;;;;;;;4971759;28;20443;-66
2022/04/21 06:10:37;;;;;;;22.95;10.85;;;;;;;;;;4965093;28;20070;-67
2022/04/21 06:13:08;;;;;;;18.30;9.50;;;;;;;;;;4952060;28;20077;-66
2022/04/21 06:15:38;;;;;;;22.20;10.88;;;;;;;;;;4932486;29;20067;-67
2022/04/21 06:18:09;;;;;;;33.70;13.00;;;;;;;;;;4933004;29;20051;-67
2022/04/21 06:20:40;;;;;;;29.48;13.30;;;;;;;;;;4932341;29;20052;-67
2022/04/21 06:23:11;;;;;;;24.60;12.98;;;;;;;;;;4916695;29;20048;-67
2022/04/21 06:25:44;;;;;;;26.55;12.25;;;;;;;;;;4921031;29;20056;-66
2022/04/21 06:28:15;;;;;;;23.33;12.43;;;;;;;;;;4913596;29;20052;-67
2022/04/21 06:30:46;;;;;;;28.25;12.48;;;;;;;;;;4913444;29;20048;-67
2022/04/21 06:33:19;;;;;;;25.00;12.50;;;;;;;;;;4883191;29;20067;-67
2022/04/21 06:35:49;;;;;;;27.38;11.00;;;;;;;;;;4913473;29;20067;-67
2022/04/21 06:38:20;;;;;;;26.27;11.02;;;;;;;;;;4913488;29;20085;-67
2022/04/21 06:40:50;;;;;;;18.55;9.38;;;;;;;;;;4913398;29;20079;-67
2022/04/21 06:48:59;;;;;;;18.95;7.90;;;;;;;;;;4913473;29;20067;-67
2022/04/21 06:51:30;;;;;;;21.92;10.13;;;;;;;;;;4929075;29;20056;-67
2022/04/21 06:54:02;;;;;;;24.80;10.23;;;;;;;;;;4947556;29;20062;-67
2022/04/21 06:56:32;;;;;;;24.40;10.45;;;;;;;;;;4951630;29;20059;-67
2022/04/21 06:59:03;;;;;;;22.35;10.10;;;;;;;;;;4951314;29;20047;-68
2022/04/21 07:01:33;;;;;;;21.23;9.00;;;;;;;;;;4981901;28;20050;-67
2022/04/21 07:04:05;;;;;;;18.33;8.45;;;;;;;;;;4970171;28;20051;-67
2022/04/21 07:06:35;;;;;;;15.85;6.95;;;;;;;;;;4970263;28;20065;-67
2022/04/21 07:09:07;;;;;;;20.08;8.02;;;;;;;;;;4982094;28;20065;-65
2022/04/21 07:11:38;;;;;;;17.38;8.27;;;;;;;;;;5028996;28;20194;-66
2022/04/21 07:14:08;;;;;;;20.40;7.13;;;;;;;;;;5029259;28;20052;-65
2022/04/21 07:16:39;;;;;;;16.75;7.18;;;;;;;;;;4992379;28;20061;-65
2022/04/21 07:19:10;;;;;;;16.00;6.53;;;;;;;;;;4937931;28;20058;-65
2022/04/21 07:21:40;;;;;;;13.30;5.68;;;;;;;;;;4950123;28;20055;-67
2022/04/21 07:24:11;;;;;;;14.80;5.72;;;;;;;;;;4951150;28;20566;-67
2022/04/21 07:26:42;;;;;;;19.15;8.95;;;;;;;;;;4950958;28;20055;-66
2022/04/21 07:29:13;;;;;;;20.45;8.80;;;;;;;;;;4934895;29;20055;-68
2022/04/21 07:31:43;;;;;;;18.58;9.95;;;;;;;;;;4950706;28;20055;-66
2022/04/21 07:34:15;;;;;;;21.52;9.50;;;;;;;;;;4931601;29;20082;-66
2022/04/21 07:36:46;;;;;;;20.00;8.68;;;;;;;;;;4881128;29;20488;-66
2022/04/21 07:39:18;;;;;;;18.08;8.63;;;;;;;;;;4912579;29;20055;-66
2022/04/21 07:41:51;;;;;;;22.27;9.43;;;;;;;;;;4922763;29;20070;-66
2022/04/21 07:44:26;;;;;;;24.60;10.63;;;;;;;;;;4930946;29;20056;-66
2022/04/21 07:46:57;;;;;;;21.70;10.57;;;;;;;;;;4931554;29;20067;-66
2022/04/21 07:49:46;;;;;;;19.45;9.90;;;;;;;;;;4931633;29;20455;-66
2022/04/21 07:55:26;;;;;;;18.27;7.63;;;;;;;;;;4931729;29;20070;-66
2022/04/21 07:57:57;;;;;;;14.68;7.35;;;;;;;;;;4968414;28;20054;-66
2022/04/21 08:00:28;;;;;;;21.05;7.40;;;;;;;;;;4988620;28;20521;-66
2022/04/21 08:02:59;;;;;;;18.70;7.28;;;;;;;;;;4989594;28;20062;-66
2022/04/21 08:05:30;;;;;;;14.75;6.57;;;;;;;;;;4950176;29;20541;-66
2022/04/21 08:08:03;;;;;;;11.85;6.03;;;;;;;;;;4935374;29;20412;-66
2022/04/21 08:10:34;;;;;;;17.17;6.13;;;;;;;;;;4918822;29;20055;-67
2022/04/21 08:13:04;;;;;;;12.35;6.03;;;;;;;;;;4989476;28;20046;-66
2022/04/21 08:15:36;;;;;;;11.40;5.65;;;;;;;;;;4992654;28;20054;-66
2022/04/21 08:18:09;;;;;;;16.10;6.47;;;;;;;;;;4960192;28;20057;-66
2022/04/21 08:20:52;;;;;;;23.90;10.38;;;;;;;;;;4993824;28;20041;-67
2022/04/21 08:23:22;;;;;;;27.55;12.23;;;;;;;;;;4976039;28;20054;-68
2022/04/21 08:34:40;;;;;;;21.50;9.40;;;;;;;;;;4971881;28;20066;-66
2022/04/21 08:37:12;;;;;;;19.40;8.60;;;;;;;;;;4989107;28;20055;-66
2022/04/21 08:39:45;;;;;;;19.45;7.72;;;;;;;;;;4989041;28;20487;-66
2022/04/21 08:42:16;;;;;;;14.05;6.50;;;;;;;;;;4971670;28;20066;-67
2022/04/21 08:44:49;;;;;;;12.65;5.78;;;;;;;;;;4989174;28;20050;-66
2022/04/21 08:47:21;;;;;;;13.45;5.82;;;;;;;;;;4988654;28;20058;-66
2022/04/21 08:49:57;;;;;;;14.70;5.88;;;;;;;;;;4992002;28;20057;-66
2022/04/21 08:52:29;;;;;;;16.45;7.00;;;;;;;;;;5008398;28;20073;-66
2022/04/21 08:55:01;;;;;;;17.90;7.40;;;;;;;;;;4988548;28;20585;-66
2022/04/21 08:57:35;;;;;;;14.98;6.50;;;;;;;;;;4991157;28;20058;-67
2022/04/21 09:00:08;;;;;;;15.95;6.13;;;;;;;;;;4959760;28;20066;-66
2022/04/21 09:02:42;;;;;;;10.45;5.03;;;;;;;;;;4992396;28;20518;-66
2022/04/21 09:05:12;;;;;;;14.82;5.32;;;;;;;;;;4993099;28;20073;-66
2022/04/21 09:07:52;;;;;;;13.40;5.60;;;;;;;;;;4972391;28;20443;-66
2022/04/21 09:10:44;;;;;;;14.15;5.65;;;;;;;;;;4972642;28;20062;-66
2022/04/21 09:13:14;;;;;;;14.13;5.85;;;;;;;;;;4972936;28;20507;-66
2022/04/21 09:15:45;;;;;;;12.73;5.93;;;;;;;;;;4914850;29;20052;-66
2022/04/21 09:18:17;;;;;;;15.07;6.68;;;;;;;;;;4926718;29;20060;-66
2022/04/21 09:20:53;;;;;;;17.27;8.15;;;;;;;;;;4891416;29;20053;-66
2022/04/21 09:23:33;;;;;;;20.63;8.27;;;;;;;;;;4858975;29;20062;-67
2022/04/21 09:26:12;;;;;;;19.70;9.15;;;;;;;;;;4873827;29;20065;-66
2022/04/21 09:28:55;;;;;;;18.60;8.82;;;;;;;;;;4877539;29;20651;-67
2022/04/21 09:31:27;;;;;;;16.45;7.45;;;;;;;;;;4914700;29;20528;-66
2022/04/21 09:33:59;;;;;;;19.20;8.65;;;;;;;;;;4933422;29;20450;-66
2022/04/21 09:36:30;;;;;;;21.17;9.55;;;;;;;;;;4933431;29;20126;-66
2022/04/21 09:39:04;;;;;;;19.65;9.45;;;;;;;;;;4914204;29;20056;-67
2022/04/21 09:41:34;;;;;;;19.15;7.85;;;;;;;;;;4914623;29;20060;-67
2022/04/21 09:47:06;;;;;;;14.95;6.63;;;;;;;;;;4971829;28;20416;-66
2022/04/21 09:49:44;;;;;;;18.55;7.75;;;;;;;;;;4971806;28;20058;-66
2022/04/21 09:52:31;;;;;;;19.77;8.40;;;;;;;;;;4990769;28;20050;-67
2022/04/21 09:55:20;;;;;;;20.80;9.68;;;;;;;;;;4969406;28;20047;-66
2022/04/21 09:57:53;;;;;;;23.33;9.63;;;;;;;;;;4950271;28;20060;-66
2022/04/21 10:00:25;;;;;;;20.90;9.27;;;;;;;;;;4952342;28;20399;-66
2022/04/21 10:02:57;;;;;;;21.73;9.43;;;;;;;;;;4986591;28;20055;-66
2022/04/21 10:05:33;;;;;;;20.65;8.93;;;;;;;;;;4971613;28;20066;-66
2022/04/21 10:08:09;;;;;;;22.30;8.93;;;;;;;;;;4967285;28;20099;-67
2022/04/21 10:10:51;;;;;;;19.83;8.05;;;;;;;;;;4948790;29;20051;-65
2022/04/21 10:13:22;;;;;;;15.93;6.63;;;;;;;;;;4917127;29;20059;-66
2022/04/21 10:15:53;;;;;;;14.93;6.30;;;;;;;;;;4954926;28;20512;-66
2022/04/21 10:18:24;;;;;;;15.20;6.20;;;;;;;;;;4971195;28;20050;-65
2022/04/21 10:20:56;;;;;;;18.42;6.88;;;;;;;;;;4958608;28;20043;-65
2022/04/21 10:23:28;;;;;;;19.52;6.75;;;;;;;;;;4951833;29;20055;-65
2022/04/21 10:26:01;;;;;;;20.90;6.60;;;;;;;;;;4951830;29;20055;-65
2022/04/21 10:28:56;;;;;;;13.85;6.35;;;;;;;;;;4970834;28;20419;-65
2022/04/21 10:31:35;;;;;;;13.98;6.38;;;;;;;;;;4970774;28;20081;-64
2022/04/21 10:34:07;;;;;;;21.00;7.72;;;;;;;;;;4971198;28;20063;-65
2022/04/21 10:36:42;;;;;;;30.55;14.02;;;;;;;;;;4951460;29;20051;-65
2022/04/21 10:39:27;;;;;;;50.47;20.20;;;;;;;;;;4951748;29;20051;-65
2022/04/21 10:42:07;;;;;;;34.88;17.20;;;;;;;;;;4913072;29;20059;-65
2022/04/21 10:44:54;;;;;;;32.78;15.32;;;;;;;;;;4915583;29;20056;-65
2022/04/21 10:47:42;;;;;;;24.17;11.02;;;;;;;;;;4931931;29;20067;-65
2022/04/21 10:50:20;;;;;;;25.98;10.30;;;;;;;;;;4916744;29;20078;-65
2022/04/21 10:58:51;;;;;;;19.77;8.40;;;;;;;;;;4882064;29;20480;-65
2022/04/21 11:01:28;;;;;;;18.73;8.93;;;;;;;;;;4913290;29;20063;-65
2022/04/21 11:04:10;;;;;;;20.58;8.20;;;;;;;;;;4913455;29;20060;-64
2022/04/21 11:06:43;;;;;;;20.65;8.95;;;;;;;;;;4924102;29;20063;-64
2022/04/21 11:09:50;;;;;;;17.98;7.45;;;;;;;;;;4901404;29;20055;-64
2022/04/21 11:12:44;;;;;;;14.95;7.50;;;;;;;;;;4932188;29;20067;-65
2022/04/21 11:15:40;;;;;;;16.38;7.63;;;;;;;;;;4966290;28;20047;-64
2022/04/21 11:18:13;;;;;;;14.77;6.20;;;;;;;;;;4970370;28;20063;-64
2022/04/21 11:20:44;;;;;;;;;;;;;;;;;;4950577;29;20399;-64
2022/04/21 11:23:41;;;;;;;13.68;5.47;;;;;;;;;;4951372;29;19922;-64
2022/04/21 11:26:12;;;;;;;14.52;6.00;;;;;;;;;;4922315;29;20786;-63
2022/04/21 11:28:45;;;;;;;18.63;7.82;;;;;;;;;;4885084;29;20063;-64
2022/04/21 11:31:15;;;;;;;18.98;8.75;;;;;;;;;;4932027;29;20089;-64
2022/04/21 11:33:46;;;;;;;21.95;10.18;;;;;;;;;;4931596;29;20059;-65
2022/04/21 11:36:17;;;;;;;15.68;8.23;;;;;;;;;;4928061;29;20056;-64
2022/04/21 11:38:48;;;;;;;22.08;11.50;;;;;;;;;;4912677;29;20082;-64
2022/04/21 11:41:19;;;;;;;18.27;9.85;;;;;;;;;;4912835;29;20445;-64
2022/04/21 11:43:50;;;;;;;14.75;8.32;;;;;;;;;;4912681;29;20064;-63
2022/04/21 11:46:22;;;;;;;12.75;6.53;;;;;;;;;;4927899;29;20063;-63
2022/04/21 11:49:03;;;;;;;15.00;7.18;;;;;;;;;;4912597;29;20060;-64
2022/04/21 11:51:34;;;;;;;13.98;7.35;;;;;;;;;;4912755;29;20444;-63
2022/04/21 11:54:07;;;;;;;20.83;6.18;;;;;;;;;;4928035;29;20056;-64
2022/04/21 11:56:39;;;;;;;17.23;7.32;;;;;;;;;;4893344;29;20465;-64
2022/04/21 11:59:11;;;;;;;15.38;6.47;;;;;;;;;;4893242;29;20057;-63
2022/04/21 12:07:20;;;;;;;14.15;6.65;;;;;;;;;;4912263;29;20056;-63
2022/04/21 12:09:51;;;;;;;17.10;7.28;;;;;;;;;;4927992;29;20052;-63
2022/04/21 12:12:22;;;;;;;12.45;6.30;;;;;;;;;;4912390;29;20504;-63
2022/04/21 12:14:53;;;;;;;17.45;7.85;;;;;;;;;;4945989;28;20080;-63
2022/04/21 12:17:24;;;;;;;15.60;6.68;;;;;;;;;;4950504;28;20063;-63
2022/04/21 12:20:02;;;;;;;13.82;6.90;;;;;;;;;;4950482;28;20404;-62
2022/04/21 12:22:33;;;;;;;14.40;7.18;;;;;;;;;;4965684;28;20046;-63
2022/04/21 12:25:12;;;;;;;21.60;6.88;;;;;;;;;;5005953;28;20057;-62
2022/04/21 12:27:44;;;;;;;13.77;6.65;;;;;;;;;;4992670;28;20058;-63
2022/04/21 12:30:15;;;;;;;11.75;6.30;;;;;;;;;;4976789;28;20069;-63
2022/04/21 12:32:49;;;;;;;12.80;6.07;;;;;;;;;;5012057;28;20057;-63
2022/04/21 12:35:49;;;;;;;13.23;6.40;;;;;;;;;;5030862;28;20064;-63
2022/04/21 12:41:09;;;;;;;19.38;8.20;;;;;;;;;;5031834;28;20053;-63
2022/04/21 12:43:39;;;;;;;17.30;8.13;;;;;;;;;;5032047;28;20061;-63
2022/04/21 12:46:10;;;;;;;17.88;7.97;;;;;;;;;;5015624;28;20046;-63
2022/04/21 12:48:50;;;;;;;14.75;7.47;;;;;;;;;;5032249;28;20401;-64
2022/04/21 12:51:22;;;;;;;18.48;6.75;;;;;;;;;;5031984;28;20100;-64
2022/04/21 12:53:57;;;;;;;17.33;7.43;;;;;;;;;;4998986;28;20049;-63
2022/04/21 12:56:38;;;;;;;14.68;7.15;;;;;;;;;;5015492;28;20066;-63
2022/04/21 12:59:08;;;;;;;13.25;6.78;;;;;;;;;;4992355;28;20070;-64
2022/04/21 13:01:39;;;;;;;16.35;7.22;;;;;;;;;;4992218;28;20065;-62
2022/04/21 13:04:10;;;;;;;14.43;6.40;;;;;;;;;;4992207;28;20062;-63
2022/04/21 13:06:43;;;;;;;18.27;6.43;;;;;;;;;;4992348;28;20054;-63
2022/04/21 13:09:14;;;;;;;14.43;6.53;;;;;;;;;;4992359;28;20062;-64
2022/04/21 13:11:44;;;;;;;12.93;6.22;;;;;;;;;;4978755;28;20513;-63
2022/04/21 13:14:19;;;;;;;13.45;5.93;;;;;;;;;;5011956;28;20050;-63
2022/04/21 13:16:50;;;;;;;12.88;6.07;;;;;;;;;;5011462;28;20054;-63
2022/04/21 13:19:21;;;;;;;13.25;6.25;;;;;;;;;;5011579;28;20423;-63
2022/04/21 13:22:05;;;;;;;12.73;5.97;;;;;;;;;;4971938;28;20051;-63
2022/04/21 13:24:36;;;;;;;15.95;6.78;;;;;;;;;;4940128;28;20059;-63
2022/04/21 13:27:07;;;;;;;16.55;7.07;;;;;;;;;;4933610;29;20070;-63
2022/04/21 13:29:38;;;;;;;16.10;7.82;;;;;;;;;;4933947;29;20058;-63
2022/04/21 13:34:57;;;;;;;17.65;7.63;;;;;;;;;;4877252;29;20056;-62
2022/04/21 13:37:28;;;;;;;16.08;8.55;;;;;;;;;;4892101;29;20074;-63
2022/04/21 13:39:59;;;;;;;16.52;7.88;;;;;;;;;;4879690;29;20506;-63
2022/04/21 13:42:29;;;;;;;16.10;7.65;;;;;;;;;;4875928;29;20417;-63
2022/04/21 13:45:00;;;;;;;18.98;9.05;;;;;;;;;;4891411;29;20056;-63
2022/04/21 13:47:51;;;;;;;15.40;8.13;;;;;;;;;;4895625;29;20057;-63
2022/04/21 13:50:22;;;;;;;16.42;8.18;;;;;;;;;;4914039;29;20048;-62
2022/04/21 13:52:53;;;;;;;16.98;8.18;;;;;;;;;;4882564;29;20126;-62
2022/04/21 13:55:24;;;;;;;17.13;8.65;;;;;;;;;;4914377;29;20075;-63
2022/04/21 13:57:54;;;;;;;17.42;8.55;;;;;;;;;;4898221;29;20063;-63
2022/04/21 14:00:26;;;;;;;14.30;8.15;;;;;;;;;;4914500;29;20064;-62
2022/04/21 14:02:57;;;;;;;19.05;8.85;;;;;;;;;;4914034;29;20052;-62
2022/04/21 14:05:27;;;;;;;19.15;8.77;;;;;;;;;;4914098;29;20083;-63
2022/04/21 14:07:58;;;;;;;20.38;9.52;;;;;;;;;;4914127;29;20067;-62
2022/04/21 14:10:30;;;;;;;21.92;10.52;;;;;;;;;;4943418;29;20055;-63
2022/04/21 14:13:00;;;;;;;21.08;9.57;;;;;;;;;;4951863;29;20078;-63
2022/04/21 14:15:31;;;;;;;22.08;9.52;;;;;;;;;;4932654;29;20417;-63
2022/04/21 14:18:02;;;;;;;18.92;9.70;;;;;;;;;;4919889;29;20402;-63
2022/04/21 14:20:33;;;;;;;19.70;9.13;;;;;;;;;;4913819;29;20531;-65
2022/04/21 14:23:04;;;;;;;19.30;9.85;;;;;;;;;;4898471;29;20083;-63
2022/04/21 14:25:34;;;;;;;18.23;8.95;;;;;;;;;;4914061;29;20052;-66
2022/04/21 14:28:05;;;;;;;18.48;9.45;;;;;;;;;;4911197;29;20066;-67
2022/04/21 14:30:36;;;;;;;16.25;8.05;;;;;;;;;;4951929;29;20063;-67
2022/04/21 14:33:09;;;;;;;26.50;10.30;;;;;;;;;;4951791;28;20423;-67
2022/04/21 14:35:39;;;;;;;18.17;9.27;;;;;;;;;;4951361;29;20539;-67
2022/04/21 14:46:39;;;;;;;12.35;5.30;;;;;;;;;;4903996;29;20215;-65
2022/04/21 14:49:30;;;;;;;12.90;4.80;;;;;;;;;;4932149;29;20527;-65
2022/04/21 14:52:01;;;;;;;10.25;5.13;;;;;;;;;;4931993;29;20059;-65
2022/04/21 14:54:32;;;;;;;8.48;4.70;;;;;;;;;;4914134;29;20518;-67
2022/04/21 14:57:03;;;;;;;11.73;4.70;;;;;;;;;;4951545;29;20047;-66
2022/04/21 14:59:34;;;;;;;8.55;3.95;;;;;;;;;;4951158;29;20058;-67
2022/04/21 15:02:08;;;;;;;6.63;3.45;;;;;;;;;;4951171;29;20047;-65
2022/04/21 15:04:39;;;;;;;11.90;3.80;;;;;;;;;;4951223;29;20051;-65
2022/04/21 15:07:10;;;;;;;8.02;3.38;;;;;;;;;;4935056;29;20059;-67
2022/04/21 15:09:41;;;;;;;9.35;3.65;;;;;;;;;;4951394;29;20055;-67
2022/04/21 15:12:12;;;;;;;9.77;4.07;;;;;;;;;;4939194;28;20059;-67
2022/04/21 15:14:43;;;;;;;8.38;4.30;;;;;;;;;;5008968;28;20065;-66
2022/04/21 15:17:13;;;;;;;10.85;4.63;;;;;;;;;;4970302;28;20062;-67
2022/04/21 15:19:46;;;;;;;8.90;4.80;;;;;;;;;;4950921;29;20048;-66
2022/04/21 15:22:18;;;;;;;7.65;4.05;;;;;;;;;;4935227;29;20538;-66
2022/04/21 15:24:52;;;;;;;8.30;5.10;;;;;;;;;;4950862;29;20323;-66
2022/04/21 15:27:23;;;;;;;7.68;3.90;;;;;;;;;;4965850;28;20515;-66
2022/04/21 15:29:54;;;;;;;10.63;4.75;;;;;;;;;;4954331;28;20058;-66
2022/04/21 15:32:25;;;;;;;10.10;4.10;;;;;;;;;;4954093;28;20442;-70
2022/04/21 15:34:56;;;;;;;10.25;4.45;;;;;;;;;;4953907;28;20407;-67
2022/04/21 15:37:26;;;;;;;7.53;3.22;;;;;;;;;;4970121;28;20066;-67
2022/04/21 15:39:59;;;;;;;8.32;3.47;;;;;;;;;;4954398;28;20535;-67
2022/04/21 15:42:30;;;;;;;6.72;3.13;;;;;;;;;;4970050;28;20515;-66
2022/04/21 15:45:01;;;;;;;5.05;2.22;;;;;;;;;;4969994;28;20047;-67
2022/04/21 15:47:32;;;;;;;5.03;2.50;;;;;;;;;;4922289;28;20059;-68
2022/04/21 15:50:03;;;;;;;7.15;2.63;;;;;;;;;;4969845;28;20055;-67
2022/04/21 15:52:34;;;;;;;6.28;2.67;;;;;;;;;;4992947;28;20732;-67
2022/04/21 16:00:43;;;;;;;6.53;2.40;;;;;;;;;;5028554;28;20057;-68
2022/04/21 16:03:15;;;;;;;5.25;2.45;;;;;;;;;;5028638;28;20527;-68
2022/04/21 16:05:46;;;;;;;4.47;2.13;;;;;;;;;;4993815;28;20056;-69
2022/04/21 16:08:17;;;;;;;5.05;2.40;;;;;;;;;;5012884;28;20057;-67
2022/04/21 16:10:47;;;;;;;3.90;1.92;;;;;;;;;;5012869;28;20387;-68
2022/04/21 16:13:18;;;;;;;4.65;2.28;;;;;;;;;;5012689;28;20057;-67
2022/04/21 16:15:48;;;;;;;6.38;2.58;;;;;;;;;;5012822;28;20050;-67
2022/04/21 16:18:20;;;;;;;5.22;2.70;;;;;;;;;;5012430;28;20068;-68